Time;durP1;ratioP1;P1;durP2;ratioP2;P2;SDS_P1;SDS_P2;PMS_P1;PMS_P2;Temp;Humidity;BMP_temperature;BMP_pressure;BME280_temperature;BME280_humidity;BME280_pressure;Samples;Min_cycle;Max_cycle;Signal;HPM_P1;HPM_P2
2022/07/31 00:00:37;;;;;;;1.50;1.40;;;;;;;;;;5008785;28;20210;-67
2022/07/31 00:03:07;;;;;;;1.60;1.50;;;;;;;;;;4997546;28;20227;-67
2022/07/31 00:05:37;;;;;;;1.50;1.40;;;;;;;;;;4989855;28;20230;-67
2022/07/31 00:08:09;;;;;;;1.73;1.63;;;;;;;;;;5023828;28;20286;-67
2022/07/31 00:10:41;;;;;;;1.80;1.57;;;;;;;;;;5009340;28;20213;-66
2022/07/31 00:13:11;;;;;;;1.90;1.80;;;;;;;;;;4999987;28;20199;-66
2022/07/31 00:15:43;;;;;;;1.60;1.50;;;;;;;;;;5014407;28;20290;-67
2022/07/31 00:18:13;;;;;;;1.70;1.60;;;;;;;;;;5022504;28;20209;-66
2022/07/31 00:20:44;;;;;;;1.80;1.50;;;;;;;;;;5023302;28;20218;-66
2022/07/31 00:23:17;;;;;;;1.80;1.70;;;;;;;;;;5001025;28;20214;-66
2022/07/31 00:25:46;;;;;;;1.70;1.60;;;;;;;;;;5012713;28;20195;-66
2022/07/31 00:28:14;;;;;;;2.07;1.90;;;;;;;;;;5014550;28;20203;-66
2022/07/31 00:30:43;;;;;;;1.60;1.50;;;;;;;;;;5014822;28;20215;-68
2022/07/31 00:33:14;;;;;;;2.00;1.80;;;;;;;;;;5029275;28;20205;-66
2022/07/31 00:35:44;;;;;;;1.57;1.47;;;;;;;;;;5013065;28;20219;-67
2022/07/31 00:38:14;;;;;;;1.50;1.40;;;;;;;;;;5017469;28;20188;-66
2022/07/31 00:41:00;;;;;;;1.60;1.50;;;;;;;;;;5002321;28;20232;-67
2022/07/31 00:43:34;;;;;;;1.60;1.50;;;;;;;;;;5001654;28;20220;-66
2022/07/31 00:46:04;;;;;;;1.60;1.50;;;;;;;;;;5012620;28;20207;-66
2022/07/31 00:48:44;;;;;;;1.73;1.63;;;;;;;;;;5004041;28;20188;-66
2022/07/31 00:51:16;;;;;;;1.33;1.23;;;;;;;;;;4998323;28;20658;-67
2022/07/31 00:53:46;;;;;;;1.67;1.57;;;;;;;;;;5017440;28;20187;-66
2022/07/31 00:56:14;;;;;;;1.40;1.30;;;;;;;;;;5026320;28;20207;-66
2022/07/31 00:58:45;;;;;;;1.40;1.30;;;;;;;;;;5004795;28;20199;-66
2022/07/31 01:01:12;;;;;;;1.80;1.50;;;;;;;;;;5022659;28;20229;-66
2022/07/31 01:03:43;;;;;;;1.40;1.30;;;;;;;;;;4995252;28;20204;-66
2022/07/31 01:06:12;;;;;;;1.27;1.17;;;;;;;;;;5007116;28;20319;-66
2022/07/31 01:08:43;;;;;;;1.53;1.20;;;;;;;;;;5000625;28;20207;-66
2022/07/31 01:11:18;;;;;;;1.50;1.40;;;;;;;;;;5007040;28;20239;-66
2022/07/31 01:14:10;;;;;;;1.10;1.10;;;;;;;;;;5006026;28;20361;-67
2022/07/31 01:16:50;;;;;;;1.30;1.20;;;;;;;;;;5003521;28;20222;-67
2022/07/31 01:19:36;;;;;;;1.50;1.40;;;;;;;;;;5007133;28;20196;-67
2022/07/31 01:22:20;;;;;;;1.40;1.30;;;;;;;;;;4988797;28;20222;-67
2022/07/31 01:25:21;;;;;;;1.50;1.40;;;;;;;;;;4992863;28;20544;-66
2022/07/31 01:27:53;;;;;;;1.63;1.40;;;;;;;;;;4995446;28;20569;-67
2022/07/31 01:30:30;;;;;;;1.53;1.43;;;;;;;;;;4999417;28;20202;-67
2022/07/31 01:33:03;;;;;;;1.40;1.30;;;;;;;;;;5008830;28;20278;-66
2022/07/31 01:36:18;;;;;;;1.50;1.40;;;;;;;;;;5001348;28;20230;-66
2022/07/31 01:38:51;;;;;;;1.50;1.40;;;;;;;;;;4996347;28;20625;-65
2022/07/31 01:41:26;;;;;;;1.23;1.13;;;;;;;;;;4999053;28;20229;-66
2022/07/31 01:43:56;;;;;;;1.60;1.50;;;;;;;;;;4993675;28;20195;-66
2022/07/31 01:46:28;;;;;;;1.50;1.40;;;;;;;;;;4999156;28;20187;-66
2022/07/31 01:48:57;;;;;;;1.40;1.30;;;;;;;;;;4982989;28;20200;-66
2022/07/31 01:51:30;;;;;;;1.40;1.30;;;;;;;;;;4977443;28;20654;-65
2022/07/31 01:54:02;;;;;;;1.60;1.50;;;;;;;;;;4993836;28;20196;-65
2022/07/31 01:56:32;;;;;;;1.57;1.47;;;;;;;;;;4989948;28;20191;-65
2022/07/31 01:59:12;;;;;;;1.50;1.40;;;;;;;;;;4997024;28;20211;-65
2022/07/31 02:01:54;;;;;;;1.43;1.33;;;;;;;;;;5006721;28;20309;-66
2022/07/31 02:04:34;;;;;;;1.77;1.50;;;;;;;;;;4986529;28;20207;-65
2022/07/31 02:07:04;;;;;;;1.50;1.40;;;;;;;;;;5003627;28;20326;-65
2022/07/31 02:09:35;;;;;;;1.40;1.30;;;;;;;;;;4992078;28;20207;-65
2022/07/31 02:12:19;;;;;;;1.40;1.30;;;;;;;;;;5000993;28;20262;-65
2022/07/31 02:15:04;;;;;;;1.47;1.37;;;;;;;;;;4995536;28;20198;-65
2022/07/31 02:17:36;;;;;;;1.70;1.60;;;;;;;;;;5004562;28;20202;-66
2022/07/31 02:20:15;;;;;;;1.27;1.27;;;;;;;;;;5016995;28;20184;-66
2022/07/31 02:22:49;;;;;;;1.50;1.40;;;;;;;;;;5009975;28;20183;-65
2022/07/31 02:25:21;;;;;;;1.70;1.60;;;;;;;;;;5001732;28;20224;-65
2022/07/31 02:27:49;;;;;;;1.47;1.37;;;;;;;;;;5019337;28;20223;-65
2022/07/31 02:30:28;;;;;;;1.33;1.17;;;;;;;;;;5022951;28;20294;-65
2022/07/31 02:33:12;;;;;;;1.30;1.20;;;;;;;;;;5002886;28;20289;-65
2022/07/31 02:35:46;;;;;;;1.50;1.40;;;;;;;;;;5000670;28;20190;-66
2022/07/31 02:38:26;;;;;;;1.47;1.37;;;;;;;;;;4979232;28;20223;-67
2022/07/31 02:41:03;;;;;;;1.50;1.40;;;;;;;;;;5003461;28;20242;-66
2022/07/31 02:43:45;;;;;;;1.60;1.50;;;;;;;;;;5006500;28;20226;-66
2022/07/31 02:46:19;;;;;;;1.60;1.50;;;;;;;;;;4968091;28;20636;-67
2022/07/31 02:48:50;;;;;;;1.50;1.40;;;;;;;;;;5015709;28;20236;-67
2022/07/31 02:51:22;;;;;;;1.53;1.43;;;;;;;;;;4997805;28;20211;-67
2022/07/31 02:53:51;;;;;;;1.50;1.40;;;;;;;;;;5009078;28;20215;-67
2022/07/31 02:56:20;;;;;;;1.50;1.40;;;;;;;;;;5020608;28;20215;-66
2022/07/31 02:58:54;;;;;;;1.57;1.47;;;;;;;;;;4985113;28;20195;-67
2022/07/31 03:01:38;;;;;;;1.40;1.30;;;;;;;;;;5000158;28;20306;-67
2022/07/31 03:04:09;;;;;;;1.50;1.40;;;;;;;;;;5005126;28;20931;-66
2022/07/31 03:06:40;;;;;;;1.40;1.30;;;;;;;;;;4986902;28;20953;-65
2022/07/31 03:09:10;;;;;;;1.50;1.40;;;;;;;;;;5006759;28;20212;-66
2022/07/31 03:11:40;;;;;;;1.60;1.50;;;;;;;;;;4991595;28;20234;-66
2022/07/31 03:14:12;;;;;;;1.60;1.50;;;;;;;;;;5010096;28;20200;-67
2022/07/31 03:16:42;;;;;;;2.20;1.33;;;;;;;;;;4988800;28;20216;-67
2022/07/31 03:19:14;;;;;;;1.80;1.70;;;;;;;;;;5008263;28;20215;-67
2022/07/31 03:21:50;;;;;;;1.53;1.43;;;;;;;;;;4983896;28;20226;-66
2022/07/31 03:24:27;;;;;;;1.60;1.40;;;;;;;;;;4993975;28;20190;-67
2022/07/31 03:27:00;;;;;;;1.50;1.40;;;;;;;;;;5002764;28;20191;-67
2022/07/31 03:29:38;;;;;;;1.20;1.20;;;;;;;;;;5008564;28;20183;-67
2022/07/31 03:32:13;;;;;;;1.50;1.40;;;;;;;;;;5015582;28;20207;-67
2022/07/31 03:34:44;;;;;;;1.50;1.40;;;;;;;;;;5013214;28;20295;-66
2022/07/31 03:37:16;;;;;;;1.37;1.30;;;;;;;;;;5009648;28;20198;-67
2022/07/31 03:39:44;;;;;;;1.67;1.57;;;;;;;;;;4994996;28;20559;-67
2022/07/31 03:42:17;;;;;;;1.57;1.47;;;;;;;;;;5010765;28;20269;-66
2022/07/31 03:44:48;;;;;;;1.37;1.27;;;;;;;;;;5014458;28;20265;-66
2022/07/31 03:47:22;;;;;;;1.50;1.40;;;;;;;;;;5010780;28;20203;-66
2022/07/31 03:49:52;;;;;;;1.40;1.30;;;;;;;;;;4995472;28;20196;-67
2022/07/31 03:52:26;;;;;;;1.67;1.57;;;;;;;;;;4991668;28;20207;-66
2022/07/31 03:54:54;;;;;;;1.63;1.53;;;;;;;;;;4991313;28;20196;-66
2022/07/31 03:57:25;;;;;;;1.80;1.70;;;;;;;;;;5010310;28;20219;-66
2022/07/31 04:00:05;;;;;;;1.57;1.47;;;;;;;;;;4989662;28;20254;-67
2022/07/31 04:02:47;;;;;;;1.53;1.43;;;;;;;;;;4972686;28;20831;-68
2022/07/31 04:05:22;;;;;;;1.67;1.57;;;;;;;;;;4994604;28;20218;-66
2022/07/31 04:07:55;;;;;;;1.60;1.50;;;;;;;;;;5007905;28;20223;-66
2022/07/31 04:10:26;;;;;;;1.50;1.40;;;;;;;;;;5007687;28;20199;-68
2022/07/31 04:13:10;;;;;;;1.23;1.23;;;;;;;;;;4992877;28;20215;-69
2022/07/31 04:15:40;;;;;;;1.60;1.40;;;;;;;;;;5003238;28;20222;-67
2022/07/31 04:18:22;;;;;;;1.63;1.53;;;;;;;;;;4995861;28;20227;-66
2022/07/31 04:20:53;;;;;;;1.47;1.37;;;;;;;;;;5002194;28;20412;-66
2022/07/31 04:23:24;;;;;;;1.50;1.40;;;;;;;;;;5024497;28;20198;-66
2022/07/31 04:26:01;;;;;;;1.40;1.30;;;;;;;;;;5011118;28;20278;-66
2022/07/31 04:28:35;;;;;;;1.50;1.40;;;;;;;;;;5017079;28;20257;-67
2022/07/31 04:31:07;;;;;;;1.60;1.50;;;;;;;;;;5005790;28;20238;-68
2022/07/31 04:33:36;;;;;;;1.47;1.40;;;;;;;;;;5004052;28;20199;-69
2022/07/31 04:36:18;;;;;;;1.43;1.33;;;;;;;;;;5001834;28;20200;-67
2022/07/31 04:39:01;;;;;;;1.33;1.23;;;;;;;;;;5003733;28;20720;-66
2022/07/31 04:41:30;;;;;;;1.50;1.40;;;;;;;;;;4999712;28;20306;-66
2022/07/31 04:44:03;;;;;;;1.40;1.30;;;;;;;;;;4993566;28;20206;-66
2022/07/31 04:46:35;;;;;;;1.50;1.40;;;;;;;;;;5017858;28;20195;-67
2022/07/31 04:49:06;;;;;;;1.80;1.70;;;;;;;;;;4996342;28;20195;-67
2022/07/31 04:51:36;;;;;;;1.70;1.60;;;;;;;;;;5008336;28;20211;-68
2022/07/31 04:54:06;;;;;;;1.50;1.40;;;;;;;;;;5024232;28;20631;-69
2022/07/31 04:56:40;;;;;;;1.60;1.50;;;;;;;;;;5006111;28;20202;-69
2022/07/31 04:59:14;;;;;;;1.67;1.57;;;;;;;;;;5002455;28;20206;-69
2022/07/31 05:02:16;;;;;;;1.90;1.33;;;;;;;;;;5005147;28;20208;-68
2022/07/31 05:04:46;;;;;;;1.60;1.50;;;;;;;;;;5006863;28;20212;-68
2022/07/31 05:07:26;;;;;;;1.67;1.57;;;;;;;;;;5006622;28;20223;-66
2022/07/31 05:09:59;;;;;;;1.80;1.70;;;;;;;;;;5023635;28;20259;-66
2022/07/31 05:12:33;;;;;;;1.70;1.60;;;;;;;;;;5021940;28;20202;-66
2022/07/31 05:15:05;;;;;;;1.70;1.60;;;;;;;;;;5006268;28;20256;-66
2022/07/31 05:17:35;;;;;;;1.53;1.43;;;;;;;;;;4990210;28;20716;-68
2022/07/31 05:20:09;;;;;;;1.70;1.60;;;;;;;;;;4990726;28;20630;-68
2022/07/31 05:22:41;;;;;;;1.60;1.50;;;;;;;;;;5022534;28;20280;-69
2022/07/31 05:25:26;;;;;;;1.70;1.60;;;;;;;;;;5002985;28;20212;-69
2022/07/31 05:27:56;;;;;;;1.40;1.30;;;;;;;;;;5006263;28;20727;-68
2022/07/31 05:30:28;;;;;;;1.53;1.43;;;;;;;;;;4995822;28;20708;-67
2022/07/31 05:33:04;;;;;;;1.40;1.30;;;;;;;;;;5008659;28;20204;-67
2022/07/31 05:35:37;;;;;;;1.60;1.50;;;;;;;;;;4999387;28;20203;-66
2022/07/31 05:38:09;;;;;;;1.70;1.60;;;;;;;;;;4989285;28;20217;-66
2022/07/31 05:40:40;;;;;;;1.73;1.63;;;;;;;;;;5003807;28;20219;-67
2022/07/31 05:43:11;;;;;;;1.60;1.50;;;;;;;;;;4996463;28;20613;-66
2022/07/31 05:45:42;;;;;;;2.00;1.80;;;;;;;;;;5012524;28;20367;-68
2022/07/31 05:48:15;;;;;;;1.50;1.40;;;;;;;;;;5028108;28;20202;-68
2022/07/31 05:50:47;;;;;;;1.70;1.60;;;;;;;;;;4973072;28;20203;-66
2022/07/31 05:53:21;;;;;;;1.77;1.60;;;;;;;;;;5022889;28;20228;-66
2022/07/31 05:55:53;;;;;;;1.70;1.60;;;;;;;;;;4994552;28;20271;-69
2022/07/31 05:58:21;;;;;;;1.50;1.40;;;;;;;;;;4997025;28;20196;-68
2022/07/31 06:00:50;;;;;;;1.53;1.43;;;;;;;;;;4996564;28;20196;-68
2022/07/31 06:03:26;;;;;;;1.57;1.47;;;;;;;;;;5007198;28;20239;-68
2022/07/31 06:05:56;;;;;;;1.50;1.40;;;;;;;;;;5021301;28;20245;-68
2022/07/31 06:08:29;;;;;;;1.87;1.50;;;;;;;;;;5011178;28;20195;-68
2022/07/31 06:11:02;;;;;;;1.67;1.57;;;;;;;;;;5008235;28;20656;-68
2022/07/31 06:13:32;;;;;;;1.60;1.50;;;;;;;;;;5001242;28;20191;-68
2022/07/31 06:16:04;;;;;;;1.30;1.20;;;;;;;;;;5008610;28;20219;-67
2022/07/31 06:18:37;;;;;;;1.70;1.60;;;;;;;;;;4995044;28;20825;-66
2022/07/31 06:21:16;;;;;;;1.60;1.50;;;;;;;;;;5014605;28;20278;-69
2022/07/31 06:23:45;;;;;;;1.90;1.80;;;;;;;;;;4986568;28;20183;-68
2022/07/31 06:26:13;;;;;;;1.47;1.37;;;;;;;;;;4990762;28;20362;-68
2022/07/31 06:28:47;;;;;;;1.67;1.57;;;;;;;;;;4979040;28;20200;-68
2022/07/31 06:31:22;;;;;;;1.60;1.50;;;;;;;;;;4985627;28;20192;-68
2022/07/31 06:33:53;;;;;;;2.03;1.60;;;;;;;;;;5012945;28;20617;-69
2022/07/31 06:36:24;;;;;;;1.57;1.40;;;;;;;;;;4990215;28;20223;-69
2022/07/31 06:38:56;;;;;;;1.70;1.60;;;;;;;;;;4999663;28;20542;-69
2022/07/31 06:44:19;;;;;;;1.17;1.17;;;;;;;;;;5018161;28;20794;-67
2022/07/31 06:46:50;;;;;;;1.60;1.50;;;;;;;;;;4989337;28;20191;-69
2022/07/31 06:49:30;;;;;;;1.43;1.30;;;;;;;;;;4991009;28;20207;-68
2022/07/31 06:52:02;;;;;;;1.43;1.33;;;;;;;;;;4987425;28;20656;-68
2022/07/31 06:54:36;;;;;;;1.50;1.40;;;;;;;;;;5018148;28;20261;-68
2022/07/31 06:57:06;;;;;;;1.73;1.43;;;;;;;;;;4992620;28;20287;-69
2022/07/31 06:59:36;;;;;;;1.50;1.40;;;;;;;;;;4998958;28;20208;-69
2022/07/31 07:02:09;;;;;;;1.40;1.23;;;;;;;;;;5002961;28;20219;-66
2022/07/31 07:04:38;;;;;;;1.60;1.50;;;;;;;;;;4973624;28;20202;-66
2022/07/31 07:07:31;;;;;;;1.50;1.40;;;;;;;;;;5005568;28;20750;-66
2022/07/31 07:10:07;;;;;;;1.50;1.40;;;;;;;;;;5008509;28;20246;-66
2022/07/31 07:12:41;;;;;;;1.47;1.37;;;;;;;;;;4986398;28;20192;-67
2022/07/31 07:15:16;;;;;;;1.50;1.40;;;;;;;;;;4995032;28;20274;-66
2022/07/31 07:17:47;;;;;;;1.63;1.53;;;;;;;;;;5008165;28;20270;-67
2022/07/31 07:20:19;;;;;;;1.33;1.23;;;;;;;;;;5000859;28;20196;-68
2022/07/31 07:22:50;;;;;;;1.33;1.23;;;;;;;;;;4985415;28;20554;-68
2022/07/31 07:25:23;;;;;;;1.27;1.27;;;;;;;;;;5008899;28;20206;-68
2022/07/31 07:27:55;;;;;;;1.23;1.17;;;;;;;;;;4989382;28;20220;-68
2022/07/31 07:30:30;;;;;;;1.50;1.40;;;;;;;;;;5007900;28;20194;-68
2022/07/31 07:33:01;;;;;;;1.30;1.20;;;;;;;;;;4991911;28;20234;-68
2022/07/31 07:35:36;;;;;;;1.50;1.40;;;;;;;;;;4996917;28;20216;-68
2022/07/31 07:38:17;;;;;;;1.33;1.23;;;;;;;;;;5008152;28;20266;-69
2022/07/31 07:40:51;;;;;;;1.50;1.40;;;;;;;;;;5002731;28;20212;-68
2022/07/31 07:43:23;;;;;;;1.60;1.47;;;;;;;;;;4995736;28;20223;-68
2022/07/31 07:45:54;;;;;;;1.17;1.07;;;;;;;;;;5007915;28;20195;-66
2022/07/31 07:48:26;;;;;;;1.50;1.40;;;;;;;;;;5025461;28;20734;-66
2022/07/31 07:50:56;;;;;;;1.57;1.47;;;;;;;;;;4999073;28;20777;-68
2022/07/31 07:53:42;;;;;;;1.50;1.40;;;;;;;;;;5022598;28;20199;-69
2022/07/31 07:56:25;;;;;;;1.50;1.40;;;;;;;;;;5007772;28;20275;-67
2022/07/31 07:58:57;;;;;;;1.50;1.40;;;;;;;;;;5008403;28;20708;-66
2022/07/31 08:01:29;;;;;;;1.40;1.30;;;;;;;;;;5007160;28;20657;-66
2022/07/31 08:04:02;;;;;;;1.53;1.40;;;;;;;;;;5003602;28;20286;-67
2022/07/31 08:06:33;;;;;;;1.70;1.33;;;;;;;;;;5007874;28;20238;-68
2022/07/31 08:09:21;;;;;;;1.70;1.50;;;;;;;;;;5005350;28;20227;-69
2022/07/31 08:12:07;;;;;;;1.40;1.30;;;;;;;;;;5003412;28;20285;-67
2022/07/31 08:14:37;;;;;;;1.50;1.40;;;;;;;;;;5009727;28;20226;-66
2022/07/31 08:17:12;;;;;;;1.47;1.30;;;;;;;;;;4983962;28;20720;-66
2022/07/31 08:19:41;;;;;;;1.43;1.33;;;;;;;;;;4975177;28;20528;-66
2022/07/31 08:22:18;;;;;;;1.23;1.13;;;;;;;;;;5009969;28;20221;-68
2022/07/31 08:24:55;;;;;;;1.30;1.20;;;;;;;;;;5005835;28;20203;-68
2022/07/31 08:27:34;;;;;;;1.63;1.53;;;;;;;;;;5012791;28;20213;-68
2022/07/31 08:30:09;;;;;;;1.47;1.37;;;;;;;;;;5024408;28;20199;-67
2022/07/31 08:32:41;;;;;;;1.83;1.30;;;;;;;;;;4989993;28;20230;-66
2022/07/31 08:35:11;;;;;;;1.50;1.40;;;;;;;;;;5022633;28;20741;-67
2022/07/31 08:37:48;;;;;;;1.40;1.30;;;;;;;;;;5015296;28;20199;-68
2022/07/31 08:40:30;;;;;;;1.67;1.30;;;;;;;;;;5002360;28;20219;-68
2022/07/31 08:43:12;;;;;;;2.30;1.40;;;;;;;;;;5016225;28;20211;-68
2022/07/31 08:46:06;;;;;;;1.43;1.33;;;;;;;;;;4999933;28;20751;-66
2022/07/31 08:48:42;;;;;;;1.80;1.37;;;;;;;;;;5008666;28;20274;-66
2022/07/31 08:51:17;;;;;;;1.53;1.43;;;;;;;;;;5018779;28;20203;-66
2022/07/31 08:53:50;;;;;;;1.50;1.40;;;;;;;;;;5018421;28;20584;-66
2022/07/31 08:56:24;;;;;;;1.40;1.30;;;;;;;;;;5001793;28;20689;-66
2022/07/31 08:58:58;;;;;;;1.43;1.33;;;;;;;;;;5004492;28;20242;-66
2022/07/31 09:01:27;;;;;;;1.67;1.43;;;;;;;;;;5012415;28;20197;-68
2022/07/31 09:03:59;;;;;;;1.60;1.50;;;;;;;;;;4991221;28;20234;-69
2022/07/31 09:06:32;;;;;;;1.43;1.33;;;;;;;;;;5012583;28;20227;-69
2022/07/31 09:09:04;;;;;;;1.93;1.60;;;;;;;;;;5008222;28;20214;-68
2022/07/31 09:11:46;;;;;;;1.40;1.30;;;;;;;;;;4993992;28;20200;-66
2022/07/31 09:14:24;;;;;;;1.53;1.43;;;;;;;;;;5017790;28;20207;-66
2022/07/31 09:16:54;;;;;;;2.10;1.73;;;;;;;;;;5015297;28;20222;-66
2022/07/31 09:19:41;;;;;;;1.60;1.50;;;;;;;;;;4997621;28;20195;-66
2022/07/31 09:22:26;;;;;;;1.50;1.40;;;;;;;;;;5008313;28;20263;-68
2022/07/31 09:25:19;;;;;;;1.50;1.40;;;;;;;;;;5008775;28;20200;-69
2022/07/31 09:27:51;;;;;;;1.73;1.57;;;;;;;;;;5006344;28;20254;-69
2022/07/31 09:30:23;;;;;;;1.73;1.63;;;;;;;;;;5011741;28;20196;-66
2022/07/31 09:32:53;;;;;;;1.57;1.47;;;;;;;;;;4991283;28;20191;-66
2022/07/31 09:35:25;;;;;;;2.27;1.53;;;;;;;;;;5011182;28;20206;-68
2022/07/31 09:37:56;;;;;;;1.50;1.40;;;;;;;;;;5009558;28;20313;-68
2022/07/31 09:40:38;;;;;;;1.50;1.40;;;;;;;;;;5016306;28;20211;-67
2022/07/31 09:43:28;;;;;;;1.47;1.37;;;;;;;;;;5006599;28;20553;-67
2022/07/31 09:46:09;;;;;;;1.67;1.57;;;;;;;;;;4984549;28;20196;-67
2022/07/31 09:48:52;;;;;;;1.50;1.40;;;;;;;;;;5017128;28;20191;-67
2022/07/31 09:51:38;;;;;;;1.47;1.37;;;;;;;;;;5010595;28;20203;-68
2022/07/31 09:54:25;;;;;;;1.60;1.50;;;;;;;;;;4983328;28;20812;-68
2022/07/31 09:56:57;;;;;;;1.73;1.63;;;;;;;;;;5013315;28;20203;-67
2022/07/31 09:59:28;;;;;;;1.53;1.43;;;;;;;;;;4994227;28;20199;-66
2022/07/31 10:02:03;;;;;;;1.50;1.40;;;;;;;;;;5014724;28;20647;-68
2022/07/31 10:04:38;;;;;;;1.47;1.37;;;;;;;;;;4978521;28;20200;-69
2022/07/31 10:07:09;;;;;;;2.33;1.47;;;;;;;;;;4991068;28;20277;-66
2022/07/31 10:10:06;;;;;;;1.47;1.37;;;;;;;;;;4994019;28;20274;-69
2022/07/31 10:12:42;;;;;;;1.50;1.40;;;;;;;;;;5016790;28;20207;-66
2022/07/31 10:15:17;;;;;;;1.43;1.33;;;;;;;;;;4983494;28;20565;-66
2022/07/31 10:17:58;;;;;;;1.60;1.50;;;;;;;;;;5015266;28;20211;-66
2022/07/31 10:20:46;;;;;;;1.40;1.30;;;;;;;;;;5015211;28;20663;-66
2022/07/31 10:23:26;;;;;;;1.63;1.53;;;;;;;;;;5011651;28;20207;-67
2022/07/31 10:25:59;;;;;;;1.80;1.40;;;;;;;;;;5010588;28;20621;-67
2022/07/31 10:28:33;;;;;;;1.83;1.60;;;;;;;;;;5005688;28;20203;-66
2022/07/31 10:31:05;;;;;;;1.27;1.17;;;;;;;;;;4990689;28;20487;-66
2022/07/31 10:33:38;;;;;;;1.70;1.60;;;;;;;;;;5009451;28;20298;-67
2022/07/31 10:36:19;;;;;;;1.80;1.70;;;;;;;;;;5010623;28;20195;-68
2022/07/31 10:39:38;;;;;;;1.60;1.50;;;;;;;;;;4995428;28;20226;-68
2022/07/31 10:42:17;;;;;;;1.70;1.60;;;;;;;;;;4921226;29;20222;-69
2022/07/31 10:44:56;;;;;;;1.87;1.53;;;;;;;;;;4935504;29;20644;-69
2022/07/31 10:47:30;;;;;;;1.40;1.30;;;;;;;;;;4940396;29;20217;-66
2022/07/31 10:50:03;;;;;;;1.70;1.60;;;;;;;;;;4947107;29;20202;-67
2022/07/31 10:52:38;;;;;;;1.70;1.60;;;;;;;;;;4910523;29;20206;-66
2022/07/31 10:55:21;;;;;;;1.70;1.60;;;;;;;;;;4936498;29;20214;-66
2022/07/31 10:57:51;;;;;;;1.70;1.60;;;;;;;;;;4926966;29;20341;-66
2022/07/31 11:00:35;;;;;;;1.60;1.50;;;;;;;;;;4922189;29;20242;-66
2022/07/31 11:03:17;;;;;;;2.00;1.80;;;;;;;;;;4933963;29;20734;-66
2022/07/31 11:06:09;;;;;;;1.83;1.60;;;;;;;;;;4941115;29;20210;-69
2022/07/31 11:08:44;;;;;;;1.87;1.60;;;;;;;;;;4927980;29;20210;-69
2022/07/31 11:11:15;;;;;;;1.80;1.70;;;;;;;;;;4933442;29;20218;-66
2022/07/31 11:13:59;;;;;;;1.57;1.47;;;;;;;;;;4938159;29;20711;-66
2022/07/31 11:16:29;;;;;;;1.70;1.60;;;;;;;;;;4925215;29;20233;-68
2022/07/31 11:19:09;;;;;;;1.63;1.53;;;;;;;;;;4984172;28;20585;-69
2022/07/31 11:21:43;;;;;;;1.80;1.70;;;;;;;;;;4999890;28;20190;-69
2022/07/31 11:24:15;;;;;;;1.77;1.60;;;;;;;;;;5010907;28;20208;-69
2022/07/31 11:26:54;;;;;;;3.00;1.70;;;;;;;;;;5008304;28;20188;-67
2022/07/31 11:29:35;;;;;;;1.90;1.80;;;;;;;;;;5005782;28;20657;-67
2022/07/31 11:32:30;;;;;;;1.57;1.47;;;;;;;;;;5008527;28;20192;-67
2022/07/31 11:35:02;;;;;;;1.90;1.80;;;;;;;;;;4981631;28;20214;-67
2022/07/31 11:37:35;;;;;;;1.97;1.77;;;;;;;;;;4981704;28;20235;-67
2022/07/31 11:40:26;;;;;;;1.60;1.50;;;;;;;;;;4974238;28;20192;-67
2022/07/31 11:43:08;;;;;;;1.83;1.73;;;;;;;;;;5000940;28;20322;-67
2022/07/31 11:45:53;;;;;;;2.10;1.87;;;;;;;;;;4979850;28;20195;-69
2022/07/31 11:48:25;;;;;;;3.07;1.50;;;;;;;;;;4997309;28;20183;-69
2022/07/31 11:51:04;;;;;;;1.73;1.63;;;;;;;;;;4987289;28;20810;-68
2022/07/31 11:53:42;;;;;;;2.23;1.63;;;;;;;;;;5009914;28;20199;-69
2022/07/31 11:56:13;;;;;;;1.80;1.70;;;;;;;;;;4999313;28;20519;-67
2022/07/31 11:58:50;;;;;;;2.43;1.80;;;;;;;;;;5002534;28;20435;-67
2022/07/31 12:01:26;;;;;;;1.90;1.80;;;;;;;;;;4993679;28;20226;-68
2022/07/31 12:04:03;;;;;;;2.13;1.90;;;;;;;;;;4986129;28;20246;-69
2022/07/31 12:06:37;;;;;;;1.80;1.70;;;;;;;;;;4999114;28;20239;-68
2022/07/31 12:09:06;;;;;;;1.70;1.60;;;;;;;;;;4992230;28;20227;-68
2022/07/31 12:12:07;;;;;;;1.80;1.70;;;;;;;;;;5007524;28;20209;-68
2022/07/31 12:14:40;;;;;;;1.90;1.80;;;;;;;;;;5020587;28;20199;-68
2022/07/31 12:17:18;;;;;;;2.10;1.87;;;;;;;;;;4994874;28;20204;-67
2022/07/31 12:19:49;;;;;;;2.03;1.70;;;;;;;;;;5006061;28;20659;-67
2022/07/31 12:22:25;;;;;;;1.80;1.70;;;;;;;;;;4994648;28;20219;-69
2022/07/31 12:25:00;;;;;;;2.33;2.13;;;;;;;;;;5001491;28;20493;-69
2022/07/31 12:27:37;;;;;;;1.80;1.70;;;;;;;;;;4984380;28;20211;-67
2022/07/31 12:30:15;;;;;;;2.00;1.90;;;;;;;;;;4996603;28;20262;-68
2022/07/31 12:32:45;;;;;;;1.90;1.80;;;;;;;;;;4998539;28;20609;-68
2022/07/31 12:35:16;;;;;;;1.90;1.80;;;;;;;;;;4997982;28;20195;-69
2022/07/31 12:37:51;;;;;;;2.37;2.10;;;;;;;;;;4996711;28;20249;-68
2022/07/31 12:40:29;;;;;;;1.87;1.70;;;;;;;;;;4989998;28;20281;-68
2022/07/31 12:42:58;;;;;;;2.10;1.90;;;;;;;;;;5016601;28;20195;-69
2022/07/31 12:45:38;;;;;;;1.80;1.70;;;;;;;;;;5020242;28;20507;-68
2022/07/31 12:48:10;;;;;;;2.23;2.07;;;;;;;;;;4998054;28;20195;-68
2022/07/31 12:50:41;;;;;;;1.73;1.63;;;;;;;;;;5009687;28;20636;-66
2022/07/31 12:53:08;;;;;;;2.03;1.80;;;;;;;;;;5007344;28;20227;-65
2022/07/31 12:55:40;;;;;;;2.00;1.90;;;;;;;;;;5000818;28;20215;-66
2022/07/31 12:58:09;;;;;;;1.80;1.70;;;;;;;;;;5018383;28;20230;-65
2022/07/31 13:00:39;;;;;;;2.10;2.00;;;;;;;;;;4978845;28;20208;-65
2022/07/31 13:03:11;;;;;;;2.07;1.87;;;;;;;;;;5000576;28;20244;-65
2022/07/31 13:05:42;;;;;;;2.07;1.93;;;;;;;;;;5009702;28;20197;-65
2022/07/31 13:08:18;;;;;;;2.30;2.10;;;;;;;;;;4996821;28;20320;-66
2022/07/31 13:10:52;;;;;;;2.03;1.80;;;;;;;;;;5021816;28;20203;-68
2022/07/31 13:13:22;;;;;;;1.90;1.80;;;;;;;;;;5000587;28;20204;-68
2022/07/31 13:15:54;;;;;;;1.80;1.70;;;;;;;;;;4984894;28;20727;-68
2022/07/31 13:18:24;;;;;;;2.40;2.20;;;;;;;;;;4989919;28;20247;-67
2022/07/31 13:20:51;;;;;;;2.60;2.40;;;;;;;;;;4987082;28;20200;-67
2022/07/31 13:23:25;;;;;;;1.90;1.80;;;;;;;;;;5009933;28;20226;-67
2022/07/31 13:26:00;;;;;;;2.37;2.27;;;;;;;;;;5013384;28;20195;-68
2022/07/31 13:28:28;;;;;;;2.17;2.07;;;;;;;;;;4997036;28;20229;-68
2022/07/31 13:30:56;;;;;;;2.20;2.00;;;;;;;;;;5004774;28;20666;-66
2022/07/31 13:33:27;;;;;;;1.90;1.80;;;;;;;;;;5024422;28;20203;-66
2022/07/31 13:35:58;;;;;;;2.33;2.13;;;;;;;;;;5001590;28;20637;-66
2022/07/31 13:38:31;;;;;;;2.43;2.20;;;;;;;;;;5010477;28;20765;-67
2022/07/31 13:41:22;;;;;;;2.03;1.93;;;;;;;;;;4987473;28;20605;-66
2022/07/31 13:43:51;;;;;;;2.33;2.13;;;;;;;;;;4998715;28;20207;-66
2022/07/31 13:46:31;;;;;;;2.50;2.30;;;;;;;;;;5010968;28;20192;-69
2022/07/31 13:49:00;;;;;;;2.80;2.10;;;;;;;;;;5007621;28;20614;-68
2022/07/31 13:51:32;;;;;;;2.30;2.10;;;;;;;;;;5005360;28;20219;-66
2022/07/31 13:54:04;;;;;;;1.90;1.80;;;;;;;;;;5008106;28;20218;-67
2022/07/31 13:56:47;;;;;;;2.60;2.40;;;;;;;;;;5005025;28;20237;-68
2022/07/31 13:59:32;;;;;;;2.27;2.07;;;;;;;;;;5009761;28;20603;-68
2022/07/31 14:02:04;;;;;;;2.43;2.23;;;;;;;;;;5009863;28;20253;-66
2022/07/31 14:04:37;;;;;;;2.10;2.00;;;;;;;;;;4989958;28;20238;-66
2022/07/31 14:07:09;;;;;;;2.60;2.40;;;;;;;;;;4983798;28;20246;-66
2022/07/31 14:09:42;;;;;;;2.73;2.13;;;;;;;;;;4995024;28;20204;-67
2022/07/31 14:12:26;;;;;;;2.77;2.50;;;;;;;;;;5011083;28;20204;-69
2022/07/31 14:14:57;;;;;;;2.50;2.30;;;;;;;;;;4991127;28;20258;-68
2022/07/31 14:17:30;;;;;;;2.40;2.20;;;;;;;;;;5005021;28;20275;-66
2022/07/31 14:20:04;;;;;;;2.27;2.17;;;;;;;;;;4999613;28;20278;-67
2022/07/31 14:22:33;;;;;;;2.60;2.07;;;;;;;;;;5008922;28;20246;-69
2022/07/31 14:25:03;;;;;;;2.00;1.87;;;;;;;;;;5008282;28;20211;-68
2022/07/31 14:27:35;;;;;;;2.20;2.10;;;;;;;;;;5016979;28;20210;-66
2022/07/31 14:30:05;;;;;;;2.40;2.20;;;;;;;;;;5016728;28;20699;-67
2022/07/31 14:32:39;;;;;;;2.33;2.13;;;;;;;;;;5000971;28;20188;-67
2022/07/31 14:35:12;;;;;;;2.30;2.10;;;;;;;;;;4997792;28;20254;-68
2022/07/31 14:37:46;;;;;;;2.50;2.27;;;;;;;;;;5016339;28;20645;-69
2022/07/31 14:40:18;;;;;;;2.30;2.10;;;;;;;;;;4996168;28;20677;-68
2022/07/31 14:42:51;;;;;;;2.30;2.20;;;;;;;;;;4980645;28;20199;-68
2022/07/31 14:45:22;;;;;;;2.20;2.10;;;;;;;;;;5002054;28;20566;-67
2022/07/31 14:47:56;;;;;;;2.00;1.90;;;;;;;;;;5009045;28;20218;-66
2022/07/31 14:50:27;;;;;;;3.30;2.10;;;;;;;;;;5007511;28;20188;-66
2022/07/31 14:53:00;;;;;;;2.07;1.97;;;;;;;;;;4997151;28;20696;-66
2022/07/31 14:55:28;;;;;;;2.33;2.13;;;;;;;;;;4982893;28;20222;-68
2022/07/31 14:58:04;;;;;;;2.00;1.90;;;;;;;;;;5009854;28;20586;-69
2022/07/31 15:00:42;;;;;;;1.97;1.87;;;;;;;;;;5028376;28;20209;-68
2022/07/31 15:03:12;;;;;;;2.13;1.80;;;;;;;;;;5021473;28;20738;-68
2022/07/31 15:05:44;;;;;;;3.10;1.80;;;;;;;;;;5013763;28;20196;-66
2022/07/31 15:08:37;;;;;;;2.07;1.60;;;;;;;;;;4997266;28;20698;-67
2022/07/31 15:11:21;;;;;;;2.77;1.80;;;;;;;;;;5004006;28;20200;-66
2022/07/31 15:14:16;;;;;;;1.80;1.70;;;;;;;;;;4989034;28;20677;-66
2022/07/31 15:16:49;;;;;;;2.30;1.90;;;;;;;;;;4980133;28;20657;-66
2022/07/31 15:19:21;;;;;;;2.37;1.67;;;;;;;;;;5001864;28;20218;-66
2022/07/31 15:21:54;;;;;;;2.97;1.77;;;;;;;;;;4989453;28;20311;-66
2022/07/31 15:24:47;;;;;;;4.20;1.77;;;;;;;;;;4997786;28;20240;-66
2022/07/31 15:27:23;;;;;;;1.80;1.70;;;;;;;;;;4961961;28;20673;-68
2022/07/31 15:29:54;;;;;;;1.90;1.80;;;;;;;;;;4983497;28;20204;-68
2022/07/31 15:32:39;;;;;;;2.20;2.00;;;;;;;;;;4999058;28;20220;-68